Seaturbot — DDTS — position and weather

sailwx.info

Track history (hours):
 
Tides and Currents Weather Stations Pressure Air Temp Water Temp Dewpoint Dewpoint Depression Visibility Wind Speed Wind Dir Waves Ship Positions

Seaturbot

Last reported at 2018-Jun-19 01:47 UTC. Time now 2018-Jun-20 19:00 UTC.
Position N 34°53' W 007°13'.

Length 177 m; draft 10.9 m.

Type: Ship. MMSI: 211330520.

Date/timePositionNaut miles runAvg speedWind from/ knotsBaromVisibWave heightAir tempDewpointWater temp
2018-Jun-19 01:47N 34°53' W 007°13'310.7
2018-Jun-19 01:30N 34°55' W 007°11'10010.4
2018-Jun-18 15:53N 35°58' W 005°35'410.5
2018-Jun-18 15:30N 35°59' W 005°30'510.0
2018-Jun-18 14:59N 36°01' W 005°24'5 9.8
2018-Jun-18 14:30N 36°01' W 005°18'5 9.8
2018-Jun-18 14:00N 36°02' W 005°12'19410.2
2018-Jun-17 19:00N 36°34' W 001°15'810.6
2018-Jun-17 18:14N 36°36' W 001°05'1110.7
2018-Jun-17 17:11N 36°38' W 000°52'311.0
2018-Jun-17 16:56N 36°39' W 000°48'511.1
2018-Jun-17 16:28N 36°40' W 000°42'3511.0
2018-Jun-17 13:17N 36°47' E 000°01'411.7
2018-Jun-17 12:59N 36°48' E 000°05'611.9
2018-Jun-17 12:28N 36°49' E 000°13'2311.6
2018-Jun-17 10:26N 36°53' E 000°42'2411.3
2018-Jun-17 08:18N 36°58' E 001°11'311.1
2018-Jun-17 08:00N 36°59' E 001°15'511.0
2018-Jun-17 07:30N 36°60' E 001°22'1410.8
2018-Jun-17 06:12N 37°03' E 001°39'210.7
2018-Jun-17 06:00N 37°03' E 001°42'510.7
2018-Jun-17 05:30N 37°04' E 001°48'610.8
2018-Jun-17 04:58N 37°05' E 001°56'510.9
2018-Jun-17 04:29N 37°06' E 002°02'610.9
2018-Jun-17 03:59N 37°07' E 002°09'510.6
2018-Jun-17 03:30N 37°08' E 002°15'510.3
2018-Jun-17 03:00N 37°09' E 002°21'5 9.9
2018-Jun-17 02:30N 37°10' E 002°27'5 9.8
2018-Jun-17 02:00N 37°11' E 002°34'510.3
2018-Jun-17 01:30N 37°12' E 002°40'610.7
2018-Jun-17 00:59N 37°13' E 002°47'1611.2
2018-Jun-16 23:31N 37°17' E 003°07'211.8
2018-Jun-16 23:23N 37°17' E 003°09'4711.9
2018-Jun-16 19:27N 37°25' E 004°07'  
2018-Jun-10 04:24N 40°48' E 027°42'711.4
2018-Jun-10 03:48N 40°48' E 027°51'411.5
2018-Jun-10 03:29N 40°49' E 027°56'55 9.3
2018-Jun-09 21:34N 41°07' E 029°05'211.7
2018-Jun-09 21:25N 41°09' E 029°04'18 9.2
2018-Jun-09 19:30N 41°24' E 029°16'611.1
2018-Jun-09 19:00N 41°26' E 029°23'511.0
2018-Jun-09 18:31N 41°29' E 029°29'2211.0
2018-Jun-09 16:29N 41°39' E 029°56'611.3
2018-Jun-09 15:56N 41°42' E 030°03'1811.3
2018-Jun-09 14:21N 41°50' E 030°25'411.4
2018-Jun-09 14:00N 41°52' E 030°29'611.2
2018-Jun-09 13:30N 41°54' E 030°36'611.2
2018-Jun-09 13:00N 41°57' E 030°43'511.2
2018-Jun-09 12:30N 41°59' E 030°50'611.3
2018-Jun-09 12:01N 42°02' E 030°56'  
Track history (hours):
 
Tides and Currents Weather Stations Pressure Air Temp Water Temp Dewpoint Dewpoint Depression Visibility Wind Speed Wind Dir Waves Ship Positions

Seaturbot

Last reported at 2018-Jun-19 01:47 UTC. Time now 2018-Jun-20 19:00 UTC.
Position N 34°53' W 007°13'.

Length 177 m; draft 10.9 m.

Type: Ship. MMSI: 211330520.

Date/timePositionNaut miles runAvg speedWind from/ knotsBaromVisibWave heightAir tempDewpointWater temp
2018-Jun-19 01:47N 34°53' W 007°13'310.7
2018-Jun-19 01:30N 34°55' W 007°11'10010.4
2018-Jun-18 15:53N 35°58' W 005°35'410.5
2018-Jun-18 15:30N 35°59' W 005°30'510.0
2018-Jun-18 14:59N 36°01' W 005°24'5 9.8
2018-Jun-18 14:30N 36°01' W 005°18'5 9.8
2018-Jun-18 14:00N 36°02' W 005°12'19410.2
2018-Jun-17 19:00N 36°34' W 001°15'810.6
2018-Jun-17 18:14N 36°36' W 001°05'1110.7
2018-Jun-17 17:11N 36°38' W 000°52'311.0
2018-Jun-17 16:56N 36°39' W 000°48'511.1
2018-Jun-17 16:28N 36°40' W 000°42'3511.0
2018-Jun-17 13:17N 36°47' E 000°01'411.7
2018-Jun-17 12:59N 36°48' E 000°05'611.9
2018-Jun-17 12:28N 36°49' E 000°13'2311.6
2018-Jun-17 10:26N 36°53' E 000°42'2411.3
2018-Jun-17 08:18N 36°58' E 001°11'311.1
2018-Jun-17 08:00N 36°59' E 001°15'511.0
2018-Jun-17 07:30N 36°60' E 001°22'1410.8
2018-Jun-17 06:12N 37°03' E 001°39'210.7
2018-Jun-17 06:00N 37°03' E 001°42'510.7
2018-Jun-17 05:30N 37°04' E 001°48'610.8
2018-Jun-17 04:58N 37°05' E 001°56'510.9
2018-Jun-17 04:29N 37°06' E 002°02'610.9
2018-Jun-17 03:59N 37°07' E 002°09'510.6
2018-Jun-17 03:30N 37°08' E 002°15'510.3
2018-Jun-17 03:00N 37°09' E 002°21'5 9.9
2018-Jun-17 02:30N 37°10' E 002°27'5 9.8
2018-Jun-17 02:00N 37°11' E 002°34'510.3
2018-Jun-17 01:30N 37°12' E 002°40'610.7
2018-Jun-17 00:59N 37°13' E 002°47'1611.2
2018-Jun-16 23:31N 37°17' E 003°07'211.8
2018-Jun-16 23:23N 37°17' E 003°09'4711.9
2018-Jun-16 19:27N 37°25' E 004°07'  
2018-Jun-10 04:24N 40°48' E 027°42'711.4
2018-Jun-10 03:48N 40°48' E 027°51'411.5
2018-Jun-10 03:29N 40°49' E 027°56'55 9.3
2018-Jun-09 21:34N 41°07' E 029°05'211.7
2018-Jun-09 21:25N 41°09' E 029°04'18 9.2
2018-Jun-09 19:30N 41°24' E 029°16'611.1
2018-Jun-09 19:00N 41°26' E 029°23'511.0
2018-Jun-09 18:31N 41°29' E 029°29'2211.0
2018-Jun-09 16:29N 41°39' E 029°56'611.3
2018-Jun-09 15:56N 41°42' E 030°03'1811.3
2018-Jun-09 14:21N 41°50' E 030°25'411.4
2018-Jun-09 14:00N 41°52' E 030°29'611.2
2018-Jun-09 13:30N 41°54' E 030°36'611.2
2018-Jun-09 13:00N 41°57' E 030°43'511.2
2018-Jun-09 12:30N 41°59' E 030°50'611.3
2018-Jun-09 12:01N 42°02' E 030°56'  

Dump ship's entire track history